createdAt,value
2023-01-26T00:01:23.810Z,76.10
2023-01-26T00:03:51.534Z,77.60
2023-01-26T00:06:20.449Z,76.50
2023-01-26T00:08:49.843Z,76.90
2023-01-26T00:11:20.567Z,76.90
2023-01-26T00:13:50.535Z,77.20
2023-01-26T00:16:17.639Z,77.20
2023-01-26T00:18:44.722Z,75.90
2023-01-26T00:21:14.789Z,76.20
2023-01-26T00:23:41.966Z,77.20
2023-01-26T00:26:11.087Z,76.10
2023-01-26T00:28:39.604Z,77.10
2023-01-26T00:31:10.290Z,76.10
2023-01-26T00:33:37.126Z,77.40
2023-01-26T00:36:04.094Z,75.80
2023-01-26T00:38:31.549Z,75.70
2023-01-26T00:40:58.257Z,75.90
2023-01-26T00:43:25.031Z,75.50
2023-01-26T00:45:52.087Z,75.40
2023-01-26T00:48:20.024Z,75.50
2023-01-26T00:50:46.816Z,75.50
2023-01-26T00:53:13.575Z,75.60
2023-01-26T00:55:40.339Z,75.70
2023-01-26T00:58:08.386Z,75.70
2023-01-26T01:00:37.807Z,76.50
2023-01-26T01:03:05.615Z,76.60
2023-01-26T01:05:33.823Z,76.00
2023-01-26T01:08:00.655Z,76.20
2023-01-26T01:10:27.610Z,75.40
2023-01-26T01:12:55.190Z,75.60
2023-01-26T01:15:23.737Z,75.60
2023-01-26T01:17:50.599Z,75.70
2023-01-26T01:20:17.405Z,75.70
2023-01-26T01:22:44.402Z,75.70
2023-01-26T01:25:11.138Z,76.00
2023-01-26T01:27:37.999Z,75.90
2023-01-26T01:30:08.250Z,75.80
2023-01-26T01:32:36.668Z,76.00
2023-01-26T01:35:04.116Z,76.20
2023-01-26T01:37:31.146Z,75.90
2023-01-26T01:39:57.968Z,75.40
2023-01-26T01:42:25.701Z,75.50
2023-01-26T01:45:26.912Z,76.30
2023-01-26T01:47:57.567Z,77.90
2023-01-26T01:50:26.002Z,77.20
2023-01-26T01:52:55.354Z,76.60
2023-01-26T01:55:22.976Z,76.60
2023-01-26T01:57:56.058Z,76.10
2023-01-26T02:00:24.095Z,77.30
2023-01-26T02:03:15.265Z,76.60
2023-01-26T02:05:44.897Z,77.40
2023-01-26T02:08:14.530Z,78.50
2023-01-26T02:10:44.988Z,77.10
2023-01-26T02:13:12.603Z,76.60
2023-01-26T02:15:43.085Z,76.20
2023-01-26T02:18:11.391Z,76.00
2023-01-26T02:20:50.667Z,75.80
2023-01-26T02:23:49.887Z,77.10
2023-01-26T02:26:22.537Z,77.50
2023-01-26T02:28:51.322Z,77.50
2023-01-26T02:31:19.482Z,75.90
2023-01-26T02:33:47.701Z,77.60
2023-01-26T02:36:29.508Z,75.90
2023-01-26T02:39:06.813Z,77.80
2023-01-26T02:41:52.010Z,78.30
2023-01-26T02:44:20.392Z,75.70
2023-01-26T02:46:47.188Z,76.00
2023-01-26T02:49:34.572Z,76.00
2023-01-26T02:52:01.363Z,76.10
2023-01-26T02:54:46.526Z,76.00
2023-01-26T02:57:13.283Z,75.30
2023-01-26T02:59:41.815Z,75.80
2023-01-26T03:02:09.158Z,77.00
2023-01-26T03:04:36.111Z,75.50
2023-01-26T03:07:02.890Z,75.20
2023-01-26T03:09:29.671Z,75.40
2023-01-26T03:11:56.414Z,75.60
2023-01-26T03:14:23.163Z,75.50
2023-01-26T03:16:50.036Z,75.70
2023-01-26T03:19:35.139Z,75.80
2023-01-26T03:22:28.994Z,75.30
2023-01-26T03:25:14.937Z,77.10
2023-01-26T03:27:48.234Z,75.40
2023-01-26T03:30:19.537Z,77.20
2023-01-26T03:32:48.077Z,77.50
2023-01-26T03:35:22.612Z,75.40
2023-01-26T03:37:54.662Z,75.50
2023-01-26T03:41:00.095Z,75.60
2023-01-26T03:43:45.666Z,75.10
2023-01-26T03:46:31.133Z,75.60
2023-01-26T03:49:16.361Z,75.50
2023-01-26T03:52:02.123Z,75.60
2023-01-26T03:54:47.523Z,75.30
2023-01-26T03:57:17.841Z,75.40
2023-01-26T03:59:44.613Z,75.80
2023-01-26T04:02:35.366Z,76.00
2023-01-26T04:05:21.429Z,75.70
2023-01-26T04:08:11.726Z,75.90
2023-01-26T04:10:38.628Z,76.00
2023-01-26T04:13:24.191Z,76.30
2023-01-26T04:16:18.839Z,75.90
2023-01-26T04:19:04.351Z,75.80
2023-01-26T04:21:34.293Z,76.10
2023-01-26T04:24:17.131Z,76.40
2023-01-26T04:26:45.076Z,77.20
2023-01-26T04:29:17.246Z,76.40
2023-01-26T04:31:45.756Z,77.20
2023-01-26T04:34:16.031Z,76.60
2023-01-26T04:36:43.916Z,77.10
2023-01-26T04:39:11.126Z,76.90
2023-01-26T04:41:42.523Z,76.30
2023-01-26T04:44:11.917Z,76.20
2023-01-26T04:46:38.799Z,75.80
2023-01-26T04:49:06.282Z,76.00
2023-01-26T04:51:34.320Z,76.20
2023-01-26T04:54:01.125Z,76.30
2023-01-26T04:56:33.374Z,76.00
2023-01-26T04:59:03.447Z,77.50
2023-01-26T05:01:32.851Z,76.90
2023-01-26T05:04:04.625Z,77.00
2023-01-26T05:06:33.107Z,78.00
2023-01-26T05:09:00.228Z,76.80
2023-01-26T05:11:27.876Z,76.30
2023-01-26T05:13:54.718Z,76.10
2023-01-26T05:16:25.365Z,76.00
2023-01-26T05:19:20.787Z,75.90
2023-01-26T05:21:58.592Z,76.00
2023-01-26T05:24:25.575Z,75.90
2023-01-26T05:27:21.604Z,76.20
2023-01-26T05:29:58.920Z,75.60
2023-01-26T05:32:29.458Z,75.80
2023-01-26T05:34:56.863Z,75.40
2023-01-26T05:37:28.714Z,75.90
2023-01-26T05:39:56.294Z,78.30
2023-01-26T05:42:23.716Z,76.20
2023-01-26T05:45:22.852Z,76.80
2023-01-26T05:47:52.053Z,76.10
2023-01-26T05:50:19.022Z,76.20
2023-01-26T05:53:06.142Z,76.00
2023-01-26T05:55:33.290Z,76.40
2023-01-26T05:58:00.124Z,76.50
2023-01-26T06:00:27.674Z,76.10
2023-01-26T06:03:02.190Z,76.50
2023-01-26T06:05:28.922Z,76.20
2023-01-26T06:07:55.923Z,76.10
2023-01-26T06:10:27.780Z,76.00
2023-01-26T06:13:20.813Z,76.20
2023-01-26T06:15:52.975Z,76.20
2023-01-26T06:18:24.359Z,76.10
2023-01-26T06:20:53.892Z,76.10
2023-01-26T06:23:20.898Z,76.30
2023-01-26T06:25:47.802Z,76.90
2023-01-26T06:28:14.546Z,76.20
2023-01-26T06:30:41.676Z,76.40
2023-01-26T06:33:12.818Z,76.30
2023-01-26T06:35:39.674Z,76.60
2023-01-26T06:38:11.027Z,76.10
2023-01-26T06:40:37.797Z,76.30
2023-01-26T06:43:04.528Z,76.30
2023-01-26T06:45:32.647Z,76.30
2023-01-26T06:48:00.148Z,76.30
2023-01-26T06:50:33.043Z,76.30
2023-01-26T06:53:02.815Z,78.30
2023-01-26T06:55:42.319Z,77.00
2023-01-26T06:58:32.236Z,76.30
2023-01-26T07:01:23.102Z,76.60
2023-01-26T07:03:50.974Z,77.10
2023-01-26T07:06:17.993Z,77.00
2023-01-26T07:08:45.080Z,76.50
2023-01-26T07:11:12.627Z,77.00
2023-01-26T07:13:40.477Z,77.70
2023-01-26T07:16:18.180Z,77.60
2023-01-26T07:18:44.953Z,79.00
2023-01-26T07:21:18.221Z,77.00
2023-01-26T07:23:45.835Z,78.10
2023-01-26T07:26:12.952Z,77.60
2023-01-26T07:28:40.483Z,77.10
2023-01-26T07:31:08.100Z,77.50
2023-01-26T07:33:35.552Z,77.60
2023-01-26T07:36:02.582Z,77.20
2023-01-26T07:38:29.425Z,77.00
2023-01-26T07:40:57.166Z,77.10
2023-01-26T07:43:24.019Z,77.90
2023-01-26T07:45:54.589Z,77.00
2023-01-26T07:48:23.367Z,77.90
2023-01-26T07:50:50.729Z,77.90
2023-01-26T07:53:22.741Z,77.50
2023-01-26T07:55:49.522Z,77.70
2023-01-26T07:58:17.991Z,77.10
2023-01-26T08:00:47.204Z,77.10
2023-01-26T08:03:14.571Z,77.20
2023-01-26T08:05:43.153Z,77.60
2023-01-26T08:08:10.531Z,77.10
2023-01-26T08:10:37.330Z,77.50
2023-01-26T08:13:04.107Z,77.30
2023-01-26T08:15:30.885Z,77.00
2023-01-26T08:17:57.650Z,77.00
2023-01-26T08:20:24.385Z,76.90
2023-01-26T08:22:51.308Z,77.20
2023-01-26T08:25:18.113Z,77.40
2023-01-26T08:27:44.868Z,77.40
2023-01-26T08:30:13.300Z,77.10
2023-01-26T08:32:40.251Z,78.30
2023-01-26T08:35:07.515Z,77.40
2023-01-26T08:37:34.271Z,77.00
2023-01-26T08:40:01.000Z,76.80
2023-01-26T08:42:27.837Z,76.90
2023-01-26T08:44:54.636Z,77.00
2023-01-26T08:47:21.443Z,76.80
2023-01-26T08:49:48.152Z,77.00
2023-01-26T08:52:15.041Z,77.10
2023-01-26T08:54:41.748Z,76.90
2023-01-26T08:57:08.508Z,76.90
2023-01-26T08:59:35.212Z,76.70
2023-01-26T09:02:01.990Z,77.00
2023-01-26T09:04:49.186Z,76.80
2023-01-26T09:07:16.037Z,76.70
2023-01-26T09:09:42.759Z,76.70
2023-01-26T09:12:09.428Z,77.00
2023-01-26T09:14:36.105Z,77.00
2023-01-26T09:17:02.805Z,77.00
2023-01-26T09:19:31.118Z,76.90
2023-01-26T09:21:58.067Z,76.90
2023-01-26T09:24:25.049Z,77.00
2023-01-26T09:26:51.937Z,77.10
2023-01-26T09:29:18.747Z,77.00
2023-01-26T09:31:45.637Z,77.10
2023-01-26T09:34:12.372Z,77.00
2023-01-26T09:36:41.417Z,76.80
2023-01-26T09:39:09.285Z,76.90
2023-01-26T09:41:46.058Z,76.70
2023-01-26T09:44:20.629Z,79.10
2023-01-26T09:47:15.846Z,78.90
2023-01-26T09:49:56.747Z,78.50
2023-01-26T09:52:28.112Z,78.00
2023-01-26T09:55:06.765Z,76.90
2023-01-26T09:57:49.379Z,78.60
2023-01-26T10:00:37.698Z,78.70
2023-01-26T10:03:36.529Z,77.90
2023-01-26T10:06:13.719Z,78.10
2023-01-26T10:09:04.089Z,78.60
2023-01-26T10:11:36.274Z,78.10
2023-01-26T10:14:15.773Z,77.00
2023-01-26T10:16:46.698Z,78.80
2023-01-26T10:19:23.653Z,79.30
2023-01-26T10:21:52.914Z,79.60
2023-01-26T10:24:22.874Z,79.30
2023-01-26T10:26:52.757Z,79.90
2023-01-26T10:29:20.589Z,79.40
2023-01-26T10:31:47.347Z,78.00
2023-01-26T10:34:15.953Z,77.90
2023-01-26T10:36:44.798Z,78.30
2023-01-26T10:39:15.583Z,79.20
2023-01-26T10:42:01.029Z,79.50
2023-01-26T10:44:36.427Z,80.10
2023-01-26T10:47:16.732Z,80.00
2023-01-26T10:49:44.069Z,79.90
2023-01-26T10:52:27.800Z,78.00
2023-01-26T10:55:21.082Z,80.00
2023-01-26T10:57:48.141Z,79.50
2023-01-26T11:00:26.081Z,78.60
2023-01-26T11:02:55.683Z,79.30
2023-01-26T11:05:24.851Z,77.80
2023-01-26T11:08:02.207Z,77.20
2023-01-26T11:10:38.581Z,77.10
2023-01-26T11:13:21.110Z,77.80
2023-01-26T11:16:20.241Z,76.60
2023-01-26T11:18:59.143Z,76.70
2023-01-26T11:21:32.359Z,76.90
2023-01-26T11:24:26.482Z,76.20
2023-01-26T11:27:14.140Z,77.40
2023-01-26T11:30:19.333Z,76.30
2023-01-26T11:33:21.310Z,76.60
2023-01-26T11:35:50.872Z,76.60
2023-01-26T11:38:41.125Z,76.40
2023-01-26T11:41:29.625Z,76.70
2023-01-26T11:44:21.617Z,77.00
2023-01-26T11:47:26.420Z,76.20
2023-01-26T11:50:04.505Z,76.50
2023-01-26T11:52:59.003Z,74.10
2023-01-26T11:56:09.340Z,76.50
2023-01-26T11:59:04.812Z,75.90
2023-01-26T12:01:41.495Z,75.60
2023-01-26T12:04:18.189Z,75.40
2023-01-26T12:06:47.379Z,75.50
2023-01-26T12:09:22.864Z,74.30
2023-01-26T12:12:00.126Z,74.20
2023-01-26T12:14:54.449Z,74.20
2023-01-26T12:17:26.902Z,74.30
2023-01-26T12:20:12.557Z,72.80
2023-01-26T12:22:44.912Z,73.60
2023-01-26T12:25:20.866Z,73.90
2023-01-26T12:28:06.429Z,72.50
2023-01-26T12:31:06.736Z,72.40
2023-01-26T12:33:34.566Z,72.50
2023-01-26T12:36:30.873Z,70.70
2023-01-26T12:39:16.259Z,71.60
2023-01-26T12:42:15.131Z,71.80
2023-01-26T12:44:47.011Z,71.30
2023-01-26T12:47:20.349Z,71.00
2023-01-26T12:50:05.451Z,71.10
2023-01-26T12:52:51.485Z,71.10
2023-01-26T12:55:24.075Z,70.90
2023-01-26T12:58:26.927Z,72.00
2023-01-26T13:01:02.943Z,71.50
2023-01-26T13:03:52.861Z,71.50
2023-01-26T13:06:23.508Z,71.50
2023-01-26T13:09:04.363Z,70.30
2023-01-26T13:11:47.059Z,70.80
2023-01-26T13:14:37.524Z,70.00
2023-01-26T13:17:48.774Z,69.10
2023-01-26T13:20:23.050Z,68.80
2023-01-26T13:22:49.952Z,69.30
2023-01-26T13:25:31.332Z,67.40
2023-01-26T13:28:12.665Z,69.40
2023-01-26T13:30:43.707Z,70.10
2023-01-26T13:33:19.101Z,70.00
2023-01-26T13:35:46.449Z,70.40
2023-01-26T13:38:22.676Z,68.90
2023-01-26T13:40:50.718Z,70.60
2023-01-26T13:43:31.018Z,69.90
2023-01-26T13:46:26.987Z,71.10
2023-01-26T13:48:55.847Z,71.00
2023-01-26T13:51:26.925Z,70.10
2023-01-26T13:54:26.635Z,70.60
2023-01-26T13:57:07.182Z,71.40
2023-01-26T13:59:47.681Z,71.20
2023-01-26T14:02:26.487Z,70.30
2023-01-26T14:04:55.615Z,71.70
2023-01-26T14:07:41.306Z,70.60
2023-01-26T14:10:15.255Z,72.10
2023-01-26T14:12:48.921Z,70.30
2023-01-26T14:15:24.496Z,72.00
2023-01-26T14:17:56.222Z,72.30
2023-01-26T14:20:29.735Z,71.60
2023-01-26T14:23:19.303Z,72.60
2023-01-26T14:25:58.258Z,72.20
2023-01-26T14:28:32.017Z,70.80
2023-01-26T14:31:28.758Z,71.70
2023-01-26T14:33:59.635Z,71.70
2023-01-26T14:36:29.574Z,72.50
2023-01-26T14:38:57.021Z,72.50
2023-01-26T14:41:32.308Z,71.70
2023-01-26T14:44:05.954Z,72.70
2023-01-26T14:46:56.810Z,71.40
2023-01-26T14:49:29.346Z,72.00
2023-01-26T14:51:58.403Z,70.80
2023-01-26T14:54:29.873Z,72.50
2023-01-26T14:56:58.757Z,72.90
2023-01-26T14:59:35.437Z,72.70
2023-01-26T15:02:23.942Z,72.90
2023-01-26T15:05:00.011Z,72.70
2023-01-26T15:07:50.894Z,73.30
2023-01-26T15:10:29.676Z,74.00
2023-01-26T15:13:11.354Z,74.70
2023-01-26T15:15:43.262Z,74.40
2023-01-26T15:18:12.875Z,73.20
2023-01-26T15:21:09.960Z,74.50
2023-01-26T15:23:41.074Z,74.50
2023-01-26T15:26:12.883Z,73.80
2023-01-26T15:28:40.038Z,74.30
2023-01-26T15:31:07.951Z,73.40
2023-01-26T15:33:52.219Z,73.70
2023-01-26T15:36:24.995Z,74.90
2023-01-26T15:38:59.818Z,75.30
2023-01-26T15:41:27.178Z,75.20
2023-01-26T15:43:53.941Z,73.50
2023-01-26T15:46:20.704Z,73.30
2023-01-26T15:48:47.932Z,73.20
2023-01-26T15:51:15.281Z,73.20
2023-01-26T15:53:42.161Z,73.30
2023-01-26T15:56:13.630Z,73.10
2023-01-26T15:58:41.236Z,74.60
2023-01-26T16:01:21.635Z,72.40
2023-01-26T16:03:49.432Z,73.50
2023-01-26T16:06:25.181Z,71.40
2023-01-26T16:08:53.656Z,74.00
2023-01-26T16:11:21.684Z,71.90
2023-01-26T16:14:02.316Z,71.50
2023-01-26T16:16:30.406Z,70.30
2023-01-26T16:18:57.502Z,70.90
2023-01-26T16:21:29.483Z,70.90
2023-01-26T16:23:56.272Z,71.80
2023-01-26T16:26:23.352Z,70.00
2023-01-26T16:28:50.112Z,70.20
2023-01-26T16:31:21.171Z,69.80
2023-01-26T16:33:48.407Z,71.50
2023-01-26T16:36:17.293Z,70.00
2023-01-26T16:38:44.777Z,70.80
2023-01-26T16:41:25.011Z,69.90
2023-01-26T16:43:54.075Z,71.20
2023-01-26T16:46:20.859Z,70.70
2023-01-26T16:48:47.678Z,69.40
2023-01-26T16:51:31.262Z,69.50
2023-01-26T16:53:58.616Z,71.30
2023-01-26T16:56:25.748Z,70.20
2023-01-26T16:58:52.444Z,70.30
2023-01-26T17:01:29.748Z,69.80
2023-01-26T17:03:56.658Z,72.50
2023-01-26T17:06:23.884Z,70.60
2023-01-26T17:08:50.954Z,70.70
2023-01-26T17:11:24.372Z,71.20
2023-01-26T17:13:52.192Z,72.80
2023-01-26T17:16:22.006Z,70.90
2023-01-26T17:18:49.408Z,72.40
2023-01-26T17:21:18.091Z,71.80
2023-01-26T17:23:48.020Z,72.00
2023-01-26T17:26:16.977Z,71.80
2023-01-26T17:28:45.114Z,72.20
2023-01-26T17:31:17.308Z,72.10
2023-01-26T17:33:46.037Z,72.50
2023-01-26T17:36:14.000Z,72.60
2023-01-26T17:38:41.196Z,72.40
2023-01-26T17:41:07.972Z,71.70
2023-01-26T17:43:34.734Z,71.60
2023-01-26T17:46:13.358Z,71.40
2023-01-26T17:48:40.704Z,73.10
2023-01-26T17:51:09.247Z,72.60
2023-01-26T17:53:39.820Z,72.50
2023-01-26T17:56:08.662Z,73.40
2023-01-26T17:58:35.978Z,72.40
2023-01-26T18:01:02.904Z,72.00
2023-01-26T18:03:29.668Z,71.50
2023-01-26T18:05:57.524Z,71.40
2023-01-26T18:08:25.079Z,72.30
2023-01-26T18:11:03.260Z,72.00
2023-01-26T18:13:31.912Z,73.50
2023-01-26T18:15:59.099Z,72.20
2023-01-26T18:18:28.562Z,71.50
2023-01-26T18:20:55.705Z,72.10
2023-01-26T18:23:24.423Z,71.60
2023-01-26T18:25:51.770Z,72.20
2023-01-26T18:28:18.609Z,71.60
2023-01-26T18:30:45.415Z,71.10
2023-01-26T18:33:12.184Z,71.00
2023-01-26T18:35:38.926Z,71.10
2023-01-26T18:38:05.714Z,70.90
2023-01-26T18:40:32.612Z,70.80
2023-01-26T18:42:59.425Z,70.60
2023-01-26T18:45:26.214Z,70.50
2023-01-26T18:47:52.985Z,70.60
2023-01-26T18:50:19.817Z,70.30
2023-01-26T18:52:46.537Z,70.60
2023-01-26T18:55:13.761Z,70.30
2023-01-26T18:57:40.825Z,70.00
2023-01-26T19:00:09.046Z,70.10
2023-01-26T19:02:39.379Z,70.80
2023-01-26T19:05:07.125Z,70.10
2023-01-26T19:07:34.587Z,71.10
2023-01-26T19:10:01.461Z,70.50
2023-01-26T19:12:28.199Z,70.30
2023-01-26T19:14:54.976Z,70.40
2023-01-26T19:17:21.779Z,70.40
2023-01-26T19:19:48.614Z,70.60
2023-01-26T19:22:15.367Z,70.50
2023-01-26T19:24:42.996Z,70.50
2023-01-26T19:27:10.490Z,70.80
2023-01-26T19:29:37.201Z,71.30
2023-01-26T19:32:04.220Z,70.90
2023-01-26T19:34:32.151Z,71.10
2023-01-26T19:36:58.992Z,71.10
2023-01-26T19:39:25.715Z,71.00
2023-01-26T19:41:52.554Z,71.10
2023-01-26T19:44:19.507Z,71.30
2023-01-26T19:46:46.204Z,71.60
2023-01-26T19:49:15.048Z,71.60
2023-01-26T19:51:41.941Z,71.60
2023-01-26T19:54:08.801Z,71.70
2023-01-26T19:56:36.271Z,72.00
2023-01-26T19:59:06.039Z,72.00
2023-01-26T20:01:33.253Z,73.30
2023-01-26T20:04:05.348Z,72.30
2023-01-26T20:06:34.311Z,74.20
2023-01-26T20:09:04.186Z,73.40
2023-01-26T20:11:31.389Z,73.80
2023-01-26T20:14:00.007Z,72.80
2023-01-26T20:16:29.945Z,73.30
2023-01-26T20:18:57.811Z,72.90
2023-01-26T20:21:24.796Z,73.60
2023-01-26T20:23:55.413Z,72.80
2023-01-26T20:26:23.785Z,73.00
2023-01-26T20:28:50.721Z,73.40
2023-01-26T20:31:20.091Z,73.20
2023-01-26T20:33:49.005Z,74.40
2023-01-26T20:36:20.389Z,74.20
2023-01-26T20:38:48.445Z,74.50
2023-01-26T20:41:21.814Z,74.00
2023-01-26T20:43:59.282Z,75.30
2023-01-26T20:46:45.667Z,73.80
2023-01-26T20:49:16.703Z,75.90
2023-01-26T20:51:45.237Z,75.30
2023-01-26T20:54:14.094Z,74.60
2023-01-26T20:56:40.977Z,75.10
2023-01-26T20:59:08.582Z,74.10
2023-01-26T21:01:36.360Z,74.40
2023-01-26T21:04:04.727Z,74.60
2023-01-26T21:06:31.538Z,76.30
2023-01-26T21:08:59.678Z,74.50
2023-01-26T21:11:28.761Z,75.60
2023-01-26T21:13:56.577Z,75.70
2023-01-26T21:16:23.939Z,75.50
2023-01-26T21:18:51.518Z,75.40
2023-01-26T21:21:19.626Z,74.90
2023-01-26T21:23:46.691Z,75.80
2023-01-26T21:26:21.637Z,75.20
2023-01-26T21:28:53.417Z,76.40
2023-01-26T21:31:21.753Z,77.20
2023-01-26T21:33:50.011Z,76.00
2023-01-26T21:36:25.309Z,76.50
2023-01-26T21:38:54.465Z,77.30
2023-01-26T21:41:43.244Z,76.40
2023-01-26T21:44:11.046Z,77.20
2023-01-26T21:46:38.469Z,75.80
2023-01-26T21:49:06.420Z,76.40
2023-01-26T21:51:52.004Z,76.80
2023-01-26T21:54:18.856Z,76.60
2023-01-26T21:56:45.752Z,76.10
2023-01-26T21:59:14.753Z,75.90
2023-01-26T22:01:44.603Z,76.80
2023-01-26T22:04:14.653Z,77.40
2023-01-26T22:06:41.855Z,77.60
2023-01-26T22:09:11.648Z,76.10
2023-01-26T22:11:39.577Z,77.60
2023-01-26T22:14:14.783Z,76.40
2023-01-26T22:16:42.315Z,76.60
2023-01-26T22:19:10.685Z,76.10
2023-01-26T22:21:38.118Z,76.50
2023-01-26T22:24:05.692Z,76.10
2023-01-26T22:26:32.570Z,76.30
2023-01-26T22:28:59.853Z,75.80
2023-01-26T22:31:29.054Z,76.10
2023-01-26T22:34:00.082Z,77.30
2023-01-26T22:36:27.700Z,78.50
2023-01-26T22:38:54.942Z,76.30
2023-01-26T22:41:27.132Z,76.30
2023-01-26T22:43:56.267Z,77.80
2023-01-26T22:46:25.244Z,77.10
2023-01-26T22:48:52.377Z,77.10
2023-01-26T22:51:21.820Z,76.50
2023-01-26T22:53:50.245Z,78.30
2023-01-26T22:56:17.916Z,77.20
2023-01-26T22:58:57.999Z,76.80
2023-01-26T23:01:28.430Z,78.00
2023-01-26T23:03:56.269Z,77.30
2023-01-26T23:06:23.840Z,76.80
2023-01-26T23:08:50.684Z,76.80
2023-01-26T23:11:20.213Z,76.40
2023-01-26T23:13:49.309Z,77.40
2023-01-26T23:16:16.528Z,76.90
2023-01-26T23:18:43.776Z,75.70
2023-01-26T23:21:10.700Z,75.90
2023-01-26T23:23:39.793Z,75.40
2023-01-26T23:26:06.671Z,76.60
2023-01-26T23:28:36.189Z,75.30
2023-01-26T23:31:03.491Z,76.30
2023-01-26T23:33:32.824Z,75.40
2023-01-26T23:36:00.387Z,75.70
2023-01-26T23:38:29.004Z,75.10
2023-01-26T23:40:56.104Z,75.50
2023-01-26T23:43:23.771Z,74.60
2023-01-26T23:45:51.005Z,75.00
2023-01-26T23:48:18.712Z,74.70
2023-01-26T23:50:45.607Z,74.70
2023-01-26T23:53:12.863Z,74.00
2023-01-26T23:55:41.700Z,73.90
2023-01-26T23:58:09.246Z,74.50
